createdAt,value
2019-05-14T00:00:22.254Z,7.60
2019-05-14T00:02:52.138Z,7.60
2019-05-14T00:05:21.549Z,7.50
2019-05-14T00:07:52.157Z,7.60
2019-05-14T00:10:21.840Z,7.60
2019-05-14T00:12:51.403Z,7.60
2019-05-14T00:15:21.681Z,7.60
2019-05-14T00:17:52.255Z,7.60
2019-05-14T00:20:22.585Z,7.60
2019-05-14T00:22:52.327Z,7.60
2019-05-14T00:25:22.126Z,7.60
2019-05-14T00:27:51.895Z,7.60
2019-05-14T00:30:22.047Z,7.60
2019-05-14T00:32:52.040Z,7.60
2019-05-14T00:35:21.803Z,7.60
2019-05-14T00:37:52.075Z,7.60
2019-05-14T00:40:22.139Z,7.60
2019-05-14T00:42:53.291Z,7.60
2019-05-14T00:45:21.930Z,7.60
2019-05-14T00:47:52.468Z,7.60
2019-05-14T00:50:21.811Z,7.60
2019-05-14T00:52:51.671Z,7.60
2019-05-14T00:55:22.369Z,7.60
2019-05-14T00:57:52.160Z,7.60
2019-05-14T01:00:22.115Z,7.60
2019-05-14T01:02:51.975Z,7.60
2019-05-14T01:05:21.621Z,7.60
2019-05-14T01:07:51.507Z,7.60
2019-05-14T01:10:22.152Z,7.60
2019-05-14T01:12:52.190Z,7.60
2019-05-14T01:15:21.746Z,7.60
2019-05-14T01:17:51.706Z,7.60
2019-05-14T01:20:21.427Z,7.60
2019-05-14T01:22:51.656Z,7.60
2019-05-14T01:25:23.699Z,7.60
2019-05-14T01:27:51.974Z,7.60
2019-05-14T01:30:21.841Z,7.60
2019-05-14T01:32:51.238Z,7.60
2019-05-14T01:35:22.189Z,7.60
2019-05-14T01:37:52.237Z,7.60
2019-05-14T01:40:21.960Z,7.60
2019-05-14T01:42:52.220Z,7.60
2019-05-14T01:45:27.727Z,7.60
2019-05-14T01:47:52.894Z,7.60
2019-05-14T01:50:22.232Z,7.60
2019-05-14T01:52:51.999Z,7.60
2019-05-14T01:55:22.007Z,7.60
2019-05-14T01:57:51.919Z,7.60
2019-05-14T02:00:22.139Z,7.60
2019-05-14T02:02:52.489Z,7.60
2019-05-14T02:05:22.062Z,7.60
2019-05-14T02:07:52.658Z,7.60
2019-05-14T02:10:22.267Z,7.70
2019-05-14T02:12:51.750Z,7.60
2019-05-14T02:15:21.431Z,7.60
2019-05-14T02:17:51.859Z,7.70
2019-05-14T02:20:21.579Z,7.70
2019-05-14T02:22:52.462Z,7.70
2019-05-14T02:25:22.102Z,7.70
2019-05-14T02:27:51.991Z,7.70
2019-05-14T02:30:28.430Z,7.70
2019-05-14T02:32:52.108Z,7.70
2019-05-14T02:35:21.137Z,7.80
2019-05-14T02:37:50.600Z,7.80
2019-05-14T02:40:20.505Z,7.80
2019-05-14T02:42:50.212Z,7.80
2019-05-14T02:45:20.054Z,7.80
2019-05-14T02:47:50.654Z,7.80
2019-05-14T02:50:20.417Z,7.80
2019-05-14T02:52:49.854Z,7.80
2019-05-14T02:55:19.522Z,7.80
2019-05-14T02:57:50.075Z,7.90
2019-05-14T03:00:20.192Z,7.90
2019-05-14T03:02:49.564Z,7.90
2019-05-14T03:05:19.283Z,7.90
2019-05-14T03:07:52.027Z,7.90
2019-05-14T03:10:20.941Z,7.90
2019-05-14T03:12:50.620Z,7.90
2019-05-14T03:15:20.231Z,7.90
2019-05-14T03:17:49.557Z,8.00
2019-05-14T03:20:19.714Z,8.00
2019-05-14T03:23:02.711Z,8.00
2019-05-14T03:25:20.159Z,8.10
2019-05-14T03:27:49.933Z,8.10
2019-05-14T03:30:22.858Z,8.10
2019-05-14T03:32:52.899Z,8.10
2019-05-14T03:35:24.615Z,8.10
2019-05-14T03:37:52.772Z,8.20
2019-05-14T03:40:22.192Z,8.10
2019-05-14T03:42:51.485Z,8.20
2019-05-14T03:45:20.902Z,8.20
2019-05-14T03:51:20.373Z,8.20
2019-05-14T03:54:01.265Z,8.20
2019-05-14T03:56:21.445Z,8.20
2019-05-14T03:58:50.724Z,8.20
2019-05-14T04:01:21.145Z,8.30
2019-05-14T04:03:50.799Z,8.30
2019-05-14T04:06:21.775Z,8.40
2019-05-14T04:08:51.822Z,8.50
2019-05-14T04:11:23.742Z,8.50
2019-05-14T04:13:55.668Z,8.50
2019-05-14T04:16:29.247Z,8.50
2019-05-14T04:19:00.634Z,8.50
2019-05-14T04:21:32.652Z,8.60
2019-05-14T04:24:04.439Z,8.60
2019-05-14T04:26:53.088Z,8.60
2019-05-14T04:29:10.365Z,8.70
2019-05-14T04:31:42.917Z,8.80
2019-05-14T04:34:14.720Z,8.80
2019-05-14T04:36:44.521Z,8.90
2019-05-14T04:39:14.824Z,9.00
2019-05-14T04:41:44.713Z,9.00
2019-05-14T04:44:13.764Z,9.00
2019-05-14T04:46:43.568Z,9.10
2019-05-14T04:49:12.656Z,9.10
2019-05-14T04:51:42.293Z,9.10
2019-05-14T04:54:11.877Z,9.20
2019-05-14T04:56:41.288Z,9.20
2019-05-14T04:59:11.099Z,9.30
2019-05-14T05:01:40.464Z,9.30
2019-05-14T05:04:09.777Z,9.40
2019-05-14T05:06:39.679Z,9.40
2019-05-14T05:09:10.024Z,9.40
2019-05-14T05:11:39.609Z,9.50
2019-05-14T05:14:09.053Z,9.50
2019-05-14T05:16:39.112Z,9.50
2019-05-14T05:19:10.348Z,9.50
2019-05-14T05:21:39.330Z,9.40
2019-05-14T05:24:09.305Z,9.50
2019-05-14T05:26:39.245Z,9.50
2019-05-14T05:29:10.459Z,9.60
2019-05-14T05:31:39.745Z,9.60
2019-05-14T05:34:09.048Z,9.70
2019-05-14T05:36:38.765Z,9.70
2019-05-14T05:39:08.768Z,9.80
2019-05-14T05:41:38.600Z,9.80
2019-05-14T05:44:08.272Z,9.90
2019-05-14T05:46:38.831Z,9.90
2019-05-14T05:49:08.179Z,10.00
2019-05-14T05:51:39.260Z,10.10
2019-05-14T05:54:09.208Z,10.20
2019-05-14T05:56:39.105Z,10.20
2019-05-14T05:59:09.595Z,10.30
2019-05-14T06:01:45.241Z,10.30
2019-05-14T06:04:10.340Z,10.20
2019-05-14T06:06:39.840Z,10.20
2019-05-14T06:09:09.034Z,10.30
2019-05-14T06:11:38.425Z,10.50
2019-05-14T06:14:08.342Z,10.70
2019-05-14T06:16:38.518Z,10.80
2019-05-14T06:19:08.359Z,11.00
2019-05-14T06:21:39.798Z,11.40
2019-05-14T06:24:09.193Z,11.60
2019-05-14T06:26:38.748Z,11.80
2019-05-14T06:29:08.467Z,11.90
2019-05-14T06:31:38.728Z,11.90
2019-05-14T06:34:09.566Z,11.70
2019-05-14T06:36:39.654Z,11.70
2019-05-14T06:39:09.674Z,11.90
2019-05-14T06:41:42.614Z,11.90
2019-05-14T06:44:10.190Z,11.80
2019-05-14T06:46:39.253Z,11.80
2019-05-14T06:49:09.087Z,11.70
2019-05-14T06:51:39.497Z,11.70
2019-05-14T06:54:12.701Z,11.60
2019-05-14T06:56:42.287Z,11.60
2019-05-14T06:59:11.200Z,11.70
2019-05-14T07:01:40.662Z,11.70
2019-05-14T07:04:09.982Z,11.70
2019-05-14T07:06:39.485Z,11.70
2019-05-14T07:09:08.607Z,11.80
2019-05-14T07:11:38.819Z,11.90
2019-05-14T07:14:11.437Z,12.00
2019-05-14T07:16:39.149Z,12.00
2019-05-14T07:19:09.431Z,12.10
2019-05-14T07:21:38.540Z,12.10
2019-05-14T07:24:08.715Z,12.10
2019-05-14T07:26:38.957Z,12.10
2019-05-14T07:32:39.474Z,12.00
2019-05-14T07:35:09.564Z,12.00
2019-05-14T07:37:39.541Z,12.00
2019-05-14T07:40:09.997Z,12.10
2019-05-14T07:42:39.147Z,12.20
2019-05-14T07:45:09.531Z,12.30
2019-05-14T07:47:39.887Z,12.40
2019-05-14T07:50:11.010Z,12.70
2019-05-14T07:52:45.239Z,12.80
2019-05-14T07:55:14.802Z,13.00
2019-05-14T07:57:44.213Z,13.20
2019-05-14T08:00:15.571Z,13.20
2019-05-14T08:02:44.733Z,13.10
2019-05-14T08:05:14.346Z,13.00
2019-05-14T08:07:43.289Z,13.10
2019-05-14T08:10:13.748Z,13.40
2019-05-14T08:12:42.793Z,13.60
2019-05-14T08:15:18.523Z,14.00
2019-05-14T08:17:44.858Z,14.20
2019-05-14T08:20:14.809Z,14.50
2019-05-14T08:22:44.386Z,14.90
2019-05-14T08:25:14.391Z,15.30
2019-05-14T08:27:48.119Z,15.40
2019-05-14T08:30:18.791Z,15.30
2019-05-14T08:32:49.024Z,15.30
2019-05-14T08:35:19.017Z,15.50
2019-05-14T08:37:49.246Z,15.80
2019-05-14T08:40:20.833Z,16.10
2019-05-14T08:42:49.302Z,16.30
2019-05-14T08:45:19.037Z,16.50
2019-05-14T08:47:48.844Z,16.60
2019-05-14T08:50:19.504Z,16.80
2019-05-14T08:52:48.854Z,17.20
2019-05-14T08:55:18.467Z,17.40
2019-05-14T08:57:48.958Z,17.30
2019-05-14T09:00:18.811Z,17.10
2019-05-14T09:02:48.773Z,16.90
2019-05-14T09:05:18.372Z,16.70
2019-05-14T09:07:49.134Z,16.50
2019-05-14T09:10:19.310Z,16.30
2019-05-14T09:12:49.080Z,16.10
2019-05-14T09:15:18.726Z,15.90
2019-05-14T09:17:48.687Z,16.00
2019-05-14T09:20:18.711Z,16.00
2019-05-14T09:22:49.066Z,16.00
2019-05-14T09:25:19.075Z,16.10
2019-05-14T09:27:49.270Z,16.00
2019-05-14T09:30:18.696Z,16.00
2019-05-14T09:32:49.340Z,16.00
2019-05-14T09:35:18.980Z,16.10
2019-05-14T09:37:51.180Z,16.00
2019-05-14T09:40:19.796Z,16.10
2019-05-14T09:42:50.017Z,16.30
2019-05-14T09:45:19.052Z,16.30
2019-05-14T09:47:50.540Z,16.20
2019-05-14T09:50:23.131Z,16.40
2019-05-14T09:52:49.512Z,16.30
2019-05-14T09:55:18.488Z,16.10
2019-05-14T09:57:49.148Z,16.20
2019-05-14T10:00:18.769Z,16.20
2019-05-14T10:02:49.224Z,16.20
2019-05-14T10:05:19.500Z,16.10
2019-05-14T10:07:49.495Z,16.20
2019-05-14T10:10:19.577Z,16.30
2019-05-14T10:12:53.920Z,16.40
2019-05-14T10:15:19.325Z,16.50
2019-05-14T10:17:50.019Z,16.70
2019-05-14T10:20:36.067Z,16.70
2019-05-14T10:22:49.512Z,16.80
2019-05-14T10:25:18.651Z,16.70
2019-05-14T10:27:48.518Z,16.50
2019-05-14T10:30:18.273Z,16.50
2019-05-14T10:32:49.195Z,16.60
2019-05-14T10:35:19.208Z,16.50
2019-05-14T10:37:48.386Z,16.40
2019-05-14T10:40:18.495Z,16.40
2019-05-14T10:42:49.433Z,16.20
2019-05-14T10:45:20.185Z,16.10
2019-05-14T10:47:49.665Z,15.90
2019-05-14T10:50:19.413Z,15.80
2019-05-14T10:52:49.020Z,15.80
2019-05-14T10:55:18.895Z,15.90
2019-05-14T10:57:54.147Z,15.60
2019-05-14T11:00:21.108Z,15.30
2019-05-14T11:02:50.091Z,15.20
2019-05-14T11:05:19.707Z,15.40
2019-05-14T11:07:49.200Z,15.30
2019-05-14T11:10:21.212Z,15.30
2019-05-14T11:12:54.557Z,15.40
2019-05-14T11:15:21.682Z,15.50
2019-05-14T11:17:51.249Z,15.40
2019-05-14T11:20:20.617Z,15.40
2019-05-14T11:22:53.003Z,15.40
2019-05-14T11:25:22.324Z,15.40
2019-05-14T11:27:51.169Z,15.20
2019-05-14T11:33:22.795Z,15.40
2019-05-14T11:35:51.794Z,15.40
2019-05-14T11:38:32.195Z,15.20
2019-05-14T11:44:20.075Z,14.90
2019-05-14T11:46:58.115Z,15.00
2019-05-14T12:01:09.025Z,15.20
2019-05-14T12:03:39.030Z,15.30
2019-05-14T12:06:09.854Z,15.50
2019-05-14T12:08:41.563Z,15.50
2019-05-14T12:11:08.791Z,15.40
2019-05-14T12:13:40.698Z,15.40
2019-05-14T12:16:09.596Z,15.30
2019-05-14T12:19:04.111Z,15.20
2019-05-14T12:21:24.207Z,15.20
2019-05-14T12:23:53.093Z,15.30
2019-05-14T12:26:21.972Z,15.10
2019-05-14T12:28:50.807Z,15.20
2019-05-14T12:31:19.661Z,15.10
2019-05-14T12:33:48.976Z,15.20
2019-05-14T12:36:19.274Z,15.00
2019-05-14T12:38:48.438Z,15.00
2019-05-14T12:41:19.284Z,15.10
2019-05-14T12:43:47.752Z,14.90
2019-05-14T12:46:16.605Z,14.90
2019-05-14T12:48:45.432Z,14.80
2019-05-14T12:51:14.235Z,14.80
2019-05-14T12:53:43.024Z,14.60
2019-05-14T12:56:14.527Z,14.50
2019-05-14T12:58:45.839Z,14.50
2019-05-14T13:01:13.778Z,14.50
2019-05-14T13:03:42.583Z,14.40
2019-05-14T13:06:11.360Z,14.50
2019-05-14T13:08:40.161Z,14.60
2019-05-14T13:11:09.859Z,14.70
2019-05-14T13:13:42.677Z,14.70
2019-05-14T13:16:09.170Z,14.60
2019-05-14T13:18:38.769Z,14.50
2019-05-14T13:21:07.908Z,14.50
2019-05-14T13:23:38.291Z,14.40
2019-05-14T13:26:10.356Z,14.30
2019-05-14T13:28:39.691Z,14.30
2019-05-14T13:31:08.898Z,14.20
2019-05-14T13:33:39.199Z,14.10
2019-05-14T13:36:08.317Z,14.10
2019-05-14T13:38:39.639Z,14.20
2019-05-14T13:41:08.619Z,14.30
2019-05-14T13:43:39.091Z,14.40
2019-05-14T13:46:10.377Z,14.50
2019-05-14T13:48:42.836Z,14.50
2019-05-14T13:51:09.286Z,14.40
2019-05-14T13:53:39.000Z,14.30
2019-05-14T13:56:09.055Z,14.10
2019-05-14T13:58:38.047Z,13.90
2019-05-14T14:01:09.721Z,13.70
2019-05-14T14:03:46.874Z,13.60
2019-05-14T14:06:10.438Z,13.50
2019-05-14T14:08:42.303Z,13.50
2019-05-14T14:11:12.791Z,13.30
2019-05-14T14:13:39.268Z,13.10
2019-05-14T14:16:13.787Z,13.00
2019-05-14T14:18:39.296Z,12.90
2019-05-14T14:21:09.443Z,12.90
2019-05-14T14:23:40.001Z,13.00
2019-05-14T14:26:11.833Z,12.90
2019-05-14T14:28:40.701Z,12.80
2019-05-14T14:31:10.988Z,12.70
2019-05-14T14:33:40.094Z,12.60
2019-05-14T14:36:09.040Z,12.60
2019-05-14T14:38:40.276Z,12.60
2019-05-14T14:41:09.969Z,12.60
2019-05-14T14:43:43.172Z,12.70
2019-05-14T14:46:13.898Z,12.70
2019-05-14T14:48:40.063Z,12.70
2019-05-14T14:51:08.917Z,12.60
2019-05-14T14:53:51.989Z,12.60
2019-05-14T14:56:09.320Z,12.60
2019-05-14T14:58:39.171Z,12.60
2019-05-14T15:01:08.773Z,12.60
2019-05-14T15:03:37.918Z,12.60
2019-05-14T15:06:09.316Z,12.80
2019-05-14T15:08:38.865Z,12.80
2019-05-14T15:11:08.539Z,12.90
2019-05-14T15:13:39.087Z,12.90
2019-05-14T15:16:13.565Z,12.80
2019-05-14T15:18:38.822Z,12.80
2019-05-14T15:21:09.701Z,12.80
2019-05-14T15:23:42.503Z,12.80
2019-05-14T15:26:12.129Z,12.70
2019-05-14T15:28:39.078Z,12.70
2019-05-14T15:31:08.703Z,12.60
2019-05-14T15:33:37.995Z,12.60
2019-05-14T15:36:09.070Z,12.50
2019-05-14T15:38:39.631Z,12.50
2019-05-14T15:41:09.304Z,12.50
2019-05-14T15:43:39.545Z,12.40
2019-05-14T15:46:08.866Z,12.40
2019-05-14T15:48:39.555Z,12.40
2019-05-14T15:51:11.535Z,12.40
2019-05-14T15:53:38.914Z,12.40
2019-05-14T15:56:08.191Z,12.50
2019-05-14T15:58:39.055Z,12.50
2019-05-14T16:01:09.944Z,12.50
2019-05-14T16:03:41.897Z,12.50
2019-05-14T16:06:10.904Z,12.50
2019-05-14T16:08:40.329Z,12.50
2019-05-14T16:11:11.304Z,12.40
2019-05-14T16:13:40.023Z,12.30
2019-05-14T16:16:10.585Z,12.10
2019-05-14T16:18:39.353Z,12.20
2019-05-14T16:21:10.503Z,12.20
2019-05-14T16:23:38.834Z,12.00
2019-05-14T16:26:08.895Z,11.90
2019-05-14T16:28:39.408Z,11.80
2019-05-14T16:31:08.683Z,11.80
2019-05-14T16:33:40.298Z,11.80
2019-05-14T16:36:08.823Z,11.80
2019-05-14T16:38:39.518Z,11.80
2019-05-14T16:41:08.527Z,11.70
2019-05-14T16:43:39.894Z,11.60
2019-05-14T16:46:09.652Z,11.60
2019-05-14T16:48:39.702Z,11.50
2019-05-14T16:51:09.119Z,11.40
2019-05-14T16:53:38.383Z,11.20
2019-05-14T16:56:08.154Z,11.10
2019-05-14T16:58:38.632Z,11.00
2019-05-14T17:01:09.542Z,10.90
2019-05-14T17:03:39.651Z,10.90
2019-05-14T17:06:09.006Z,10.90
2019-05-14T17:08:39.333Z,10.90
2019-05-14T17:11:08.867Z,10.90
2019-05-14T17:13:38.304Z,10.90
2019-05-14T17:16:08.531Z,10.90
2019-05-14T17:18:37.733Z,10.80
2019-05-14T17:21:08.931Z,10.80
2019-05-14T17:23:39.032Z,10.80
2019-05-14T17:26:08.913Z,10.70
2019-05-14T17:28:40.465Z,10.70
2019-05-14T17:31:08.317Z,10.60
2019-05-14T17:33:39.344Z,10.60
2019-05-14T17:36:09.704Z,10.50
2019-05-14T17:38:39.119Z,10.50
2019-05-14T17:41:09.419Z,10.50
2019-05-14T17:43:39.307Z,10.60
2019-05-14T17:46:09.783Z,10.60
2019-05-14T17:48:39.551Z,10.60
2019-05-14T17:51:09.425Z,10.60
2019-05-14T17:53:38.704Z,10.60
2019-05-14T17:56:08.655Z,10.50
2019-05-14T17:58:38.351Z,10.50
2019-05-14T18:01:09.058Z,10.50
2019-05-14T18:03:40.020Z,10.40
2019-05-14T18:06:09.277Z,10.40
2019-05-14T18:08:38.355Z,10.30
2019-05-14T18:11:08.742Z,10.30
2019-05-14T18:13:39.107Z,10.30
2019-05-14T18:16:09.196Z,10.30
2019-05-14T18:18:38.154Z,10.30
2019-05-14T18:21:09.141Z,10.30
2019-05-14T18:23:41.716Z,10.30
2019-05-14T18:26:09.136Z,10.20
2019-05-14T18:28:38.478Z,10.10
2019-05-14T18:31:09.478Z,10.10
2019-05-14T18:33:40.208Z,10.00
2019-05-14T18:36:09.180Z,9.90
2019-05-14T18:38:38.776Z,9.90
2019-05-14T18:41:08.450Z,9.90
2019-05-14T18:43:37.543Z,9.90
2019-05-14T18:46:08.467Z,9.80
2019-05-14T18:48:37.769Z,9.80
2019-05-14T18:51:09.053Z,9.70
2019-05-14T18:53:38.435Z,9.70
2019-05-14T18:56:19.458Z,9.70
2019-05-14T18:58:38.687Z,9.70
2019-05-14T19:01:08.365Z,9.70
2019-05-14T19:03:39.593Z,9.70
2019-05-14T19:06:09.180Z,9.60
2019-05-14T19:08:39.536Z,9.60
2019-05-14T19:11:08.535Z,9.60
2019-05-14T19:13:39.020Z,9.50
2019-05-14T19:16:08.398Z,9.50
2019-05-14T19:18:40.454Z,9.50
2019-05-14T19:21:09.237Z,9.50
2019-05-14T19:23:38.411Z,9.50
2019-05-14T19:26:09.432Z,9.50
2019-05-14T19:28:38.972Z,9.50
2019-05-14T19:31:09.156Z,9.50
2019-05-14T19:33:38.253Z,9.50
2019-05-14T19:36:08.856Z,9.50
2019-05-14T19:38:38.863Z,9.40
2019-05-14T19:41:08.789Z,9.50
2019-05-14T19:43:37.763Z,9.50
2019-05-14T19:46:08.596Z,9.40
2019-05-14T19:48:36.984Z,9.40
2019-05-14T19:51:08.054Z,9.30
2019-05-14T19:53:36.375Z,9.30
2019-05-14T19:56:07.482Z,9.20
2019-05-14T19:58:38.342Z,9.10
2019-05-14T20:01:09.133Z,9.10
2019-05-14T20:03:38.212Z,9.00
2019-05-14T20:06:09.015Z,8.80
2019-05-14T20:08:38.520Z,8.70
2019-05-14T20:11:07.607Z,8.60
2019-05-14T20:13:38.917Z,8.50
2019-05-14T20:16:08.707Z,8.40
2019-05-14T20:18:38.257Z,8.30
2019-05-14T20:21:08.734Z,8.30
2019-05-14T20:23:38.762Z,8.10
2019-05-14T20:26:08.317Z,8.10
2019-05-14T20:28:38.973Z,8.10
2019-05-14T20:31:10.023Z,8.10
2019-05-14T20:33:38.233Z,8.10
2019-05-14T20:36:08.253Z,8.10
2019-05-14T20:38:38.822Z,8.00
2019-05-14T20:41:08.675Z,8.00
2019-05-14T20:43:38.473Z,8.00
2019-05-14T20:46:07.487Z,8.00
2019-05-14T20:48:38.850Z,8.00
2019-05-14T20:51:08.856Z,7.90
2019-05-14T20:53:39.440Z,8.00
2019-05-14T20:56:08.369Z,8.00
2019-05-14T20:58:38.796Z,8.00
2019-05-14T21:01:11.147Z,8.00
2019-05-14T21:03:38.671Z,8.00
2019-05-14T21:06:09.068Z,8.00
2019-05-14T21:08:38.091Z,8.00
2019-05-14T21:11:08.240Z,8.00
2019-05-14T21:13:37.154Z,8.00
2019-05-14T21:16:08.339Z,8.00
2019-05-14T21:18:40.924Z,8.00
2019-05-14T21:21:10.855Z,8.00
2019-05-14T21:23:38.928Z,8.00
2019-05-14T21:26:08.580Z,8.00
2019-05-14T21:28:39.261Z,8.00
2019-05-14T21:31:10.384Z,8.00
2019-05-14T21:33:45.342Z,8.10
2019-05-14T21:36:14.131Z,8.10
2019-05-14T21:38:42.903Z,8.10
2019-05-14T21:41:11.740Z,8.10
2019-05-14T21:43:40.548Z,8.10
2019-05-14T21:46:09.313Z,8.10
2019-05-14T21:48:38.819Z,8.10
2019-05-14T21:51:08.718Z,8.10
2019-05-14T21:53:38.659Z,8.10
2019-05-14T21:56:08.239Z,8.10
2019-05-14T21:58:38.697Z,8.10
2019-05-14T22:01:09.467Z,8.00
2019-05-14T22:03:44.487Z,8.00
2019-05-14T22:06:13.302Z,7.90
2019-05-14T22:08:42.051Z,7.80
2019-05-14T22:11:11.023Z,7.80
2019-05-14T22:13:39.830Z,7.80
2019-05-14T22:16:08.651Z,7.70
2019-05-14T22:18:38.835Z,7.70
2019-05-14T22:21:08.905Z,7.70
2019-05-14T22:23:38.780Z,7.60
2019-05-14T22:26:07.811Z,7.60
2019-05-14T22:28:36.639Z,7.60
2019-05-14T22:31:05.583Z,7.50
2019-05-14T22:33:38.003Z,7.50
2019-05-14T22:36:08.529Z,7.50
2019-05-14T22:42:05.543Z,7.40
2019-05-14T22:44:34.347Z,7.40
2019-05-14T22:47:03.176Z,7.40
2019-05-14T22:49:36.267Z,7.40
2019-05-14T22:52:05.047Z,7.40
2019-05-14T22:54:48.927Z,7.40
2019-05-14T22:57:17.789Z,7.40
2019-05-14T22:59:48.625Z,7.40
2019-05-14T23:02:19.286Z,7.40
2019-05-14T23:04:49.230Z,7.40
2019-05-14T23:07:18.980Z,7.40
2019-05-14T23:09:48.223Z,7.40
2019-05-14T23:12:17.173Z,7.40
2019-05-14T23:14:48.506Z,7.40
2019-05-14T23:17:16.441Z,7.30
2019-05-14T23:19:48.364Z,7.30
2019-05-14T23:22:18.554Z,7.30
2019-05-14T23:24:51.446Z,7.30
2019-05-14T23:27:24.388Z,7.20
2019-05-14T23:29:55.271Z,7.20
2019-05-14T23:32:29.582Z,7.20
2019-05-14T23:35:04.364Z,7.20
2019-05-14T23:37:34.209Z,7.20
2019-05-14T23:40:02.975Z,7.20
2019-05-14T23:42:33.871Z,7.10
2019-05-14T23:45:04.479Z,7.10
2019-05-14T23:47:58.342Z,7.00
2019-05-14T23:50:28.371Z,7.00
2019-05-14T23:53:00.393Z,7.00
2019-05-14T23:55:44.180Z,7.00
2019-05-14T23:58:25.812Z,7.00
